createdAt,value
2018-07-02T00:00:36.072Z,20.25
2018-07-02T00:03:08.655Z,20.21
2018-07-02T00:05:49.557Z,20.15
2018-07-02T00:08:19.280Z,20.12
2018-07-02T00:10:49.079Z,20.14
2018-07-02T00:13:18.791Z,20.06
2018-07-02T00:15:48.592Z,19.93
2018-07-02T00:18:18.406Z,19.85
2018-07-02T00:20:48.263Z,19.93
2018-07-02T00:23:18.048Z,20.00
2018-07-02T00:25:47.875Z,20.15
2018-07-02T00:28:17.615Z,20.23
2018-07-02T00:30:47.428Z,20.35
2018-07-02T00:33:17.385Z,20.31
2018-07-02T00:38:22.404Z,20.42
2018-07-02T00:40:52.175Z,20.28
2018-07-02T00:43:22.215Z,20.21
2018-07-02T00:45:51.999Z,20.19
2018-07-02T00:48:21.750Z,20.19
2018-07-02T00:53:26.910Z,20.25
2018-07-02T00:55:56.730Z,20.15
2018-07-02T00:58:26.571Z,20.02
2018-07-02T01:00:57.589Z,19.97
2018-07-02T01:03:27.607Z,19.87
2018-07-02T01:05:57.431Z,19.84
2018-07-02T01:08:27.353Z,19.84
2018-07-02T01:10:57.328Z,19.81
2018-07-02T01:13:27.214Z,19.76
2018-07-02T01:15:58.846Z,19.71
2018-07-02T01:18:28.615Z,19.64
2018-07-02T01:23:33.706Z,19.65
2018-07-02T01:26:03.699Z,19.51
2018-07-02T01:28:33.788Z,19.57
2018-07-02T01:31:03.663Z,19.62
2018-07-02T01:33:37.729Z,19.66
2018-07-02T01:36:07.548Z,19.64
2018-07-02T01:38:37.446Z,19.52
2018-07-02T01:44:00.265Z,19.58
2018-07-02T01:46:30.224Z,19.60
2018-07-02T01:49:00.573Z,19.62
2018-07-02T01:51:30.391Z,19.67
2018-07-02T01:54:00.359Z,19.69
2018-07-02T01:56:30.271Z,19.65
2018-07-02T02:01:35.117Z,19.79
2018-07-02T02:04:04.901Z,19.96
2018-07-02T02:06:34.785Z,19.88
2018-07-02T02:09:06.622Z,19.76
2018-07-02T02:11:36.554Z,19.76
2018-07-02T02:14:06.444Z,19.81
2018-07-02T02:16:36.733Z,19.86
2018-07-02T02:19:07.087Z,19.85
2018-07-02T02:21:37.802Z,19.75
2018-07-02T02:24:07.680Z,19.80
2018-07-02T02:26:37.414Z,19.81
2018-07-02T02:29:07.213Z,19.89
2018-07-02T02:31:37.267Z,19.89
2018-07-02T02:34:07.103Z,19.87
2018-07-02T02:36:36.844Z,19.81
2018-07-02T02:39:07.899Z,19.82
2018-07-02T02:41:38.659Z,19.81
2018-07-02T02:44:18.145Z,19.76
2018-07-02T02:46:47.988Z,19.73
2018-07-02T02:51:54.079Z,19.92
2018-07-02T02:54:23.944Z,19.86
2018-07-02T02:56:53.925Z,19.79
2018-07-02T02:59:23.749Z,19.80
2018-07-02T03:01:53.594Z,19.85
2018-07-02T03:04:23.455Z,19.76
2018-07-02T03:06:53.383Z,19.70
2018-07-02T03:09:23.366Z,19.54
2018-07-02T03:11:53.228Z,19.38
2018-07-02T03:14:23.070Z,19.35
2018-07-02T03:16:53.424Z,19.62
2018-07-02T03:19:23.165Z,19.86
2018-07-02T03:21:56.508Z,19.94
2018-07-02T03:24:26.281Z,19.88
2018-07-02T03:26:56.132Z,19.82
2018-07-02T03:29:25.923Z,19.81
2018-07-02T03:31:55.729Z,19.89
2018-07-02T03:34:25.534Z,20.03
2018-07-02T03:36:55.273Z,20.09
2018-07-02T03:39:25.155Z,19.97
2018-07-02T03:41:58.331Z,19.93
2018-07-02T03:44:37.903Z,19.96
2018-07-02T03:47:07.724Z,19.99
2018-07-02T03:49:38.165Z,19.96
2018-07-02T03:52:08.497Z,19.95
2018-07-02T03:54:38.310Z,19.92
2018-07-02T03:57:09.518Z,19.85
2018-07-02T03:59:39.315Z,19.90
2018-07-02T04:02:09.079Z,19.95
2018-07-02T04:04:39.305Z,20.04
2018-07-02T04:07:09.329Z,20.05
2018-07-02T04:12:40.237Z,20.29
2018-07-02T04:17:45.691Z,20.45
2018-07-02T04:20:15.796Z,20.46
2018-07-02T04:22:45.673Z,20.46
2018-07-02T04:25:15.537Z,20.48
2018-07-02T04:30:20.791Z,20.51
2018-07-02T04:32:51.537Z,20.52
2018-07-02T04:35:21.623Z,20.60
2018-07-02T04:37:51.594Z,20.73
2018-07-02T04:42:57.007Z,20.79
2018-07-02T04:45:26.840Z,20.72
2018-07-02T04:47:56.680Z,20.73
2018-07-02T04:50:26.449Z,20.58
2018-07-02T04:52:56.239Z,20.61
2018-07-02T04:55:26.022Z,20.58
2018-07-02T04:57:56.025Z,20.72
2018-07-02T05:00:25.788Z,20.64
2018-07-02T05:02:55.657Z,20.84
2018-07-02T05:05:25.397Z,20.86
2018-07-02T05:10:41.424Z,21.16
2018-07-02T05:13:11.231Z,21.23
2018-07-02T05:15:41.117Z,21.25
2018-07-02T05:18:10.849Z,21.35
2018-07-02T05:20:52.998Z,21.54
2018-07-02T05:23:22.829Z,21.64
2018-07-02T05:25:52.666Z,21.61
2018-07-02T05:28:22.552Z,21.56
2018-07-02T05:30:52.261Z,21.51
2018-07-02T05:33:22.038Z,21.69
2018-07-02T05:35:51.832Z,21.73
2018-07-02T05:38:21.619Z,21.78
2018-07-02T05:40:51.513Z,21.77
2018-07-02T05:43:21.473Z,21.73
2018-07-02T05:45:51.409Z,21.73
2018-07-02T05:48:21.183Z,21.80
2018-07-02T05:50:50.990Z,22.17
2018-07-02T05:53:20.674Z,22.07
2018-07-02T05:55:50.630Z,22.37
2018-07-02T05:58:20.958Z,22.52
2018-07-02T06:00:50.779Z,22.37
2018-07-02T06:03:20.500Z,22.30
2018-07-02T06:05:50.286Z,22.28
2018-07-02T06:08:20.143Z,22.59
2018-07-02T06:10:49.862Z,22.43
2018-07-02T06:13:19.723Z,22.61
2018-07-02T06:15:49.473Z,22.81
2018-07-02T06:18:19.416Z,22.68
2018-07-02T06:20:49.462Z,22.93
2018-07-02T06:23:19.452Z,23.03
2018-07-02T06:25:49.344Z,22.98
2018-07-02T06:28:19.162Z,22.86
2018-07-02T06:30:49.137Z,23.12
2018-07-02T06:33:19.110Z,23.10
2018-07-02T06:35:49.083Z,23.39
2018-07-02T06:38:19.189Z,23.54
2018-07-02T06:40:48.982Z,23.34
2018-07-02T06:43:18.785Z,23.01
2018-07-02T06:48:17.120Z,22.91
2018-07-02T06:50:46.824Z,23.21
2018-07-02T06:53:16.577Z,23.32
2018-07-02T06:55:46.466Z,23.22
2018-07-02T06:58:16.294Z,23.36
2018-07-02T07:00:46.226Z,23.15
2018-07-02T07:03:16.052Z,22.80
2018-07-02T07:05:45.962Z,22.88
2018-07-02T07:08:16.633Z,22.69
2018-07-02T07:10:46.516Z,22.62
2018-07-02T07:13:16.252Z,22.56
2018-07-02T07:15:46.141Z,22.58
2018-07-02T07:18:16.811Z,22.52
2018-07-02T07:20:46.521Z,22.58
2018-07-02T07:23:16.427Z,23.03
2018-07-02T07:25:46.142Z,22.90
2018-07-02T07:28:15.885Z,22.93
2018-07-02T07:30:45.924Z,23.02
2018-07-02T07:33:16.638Z,23.17
2018-07-02T07:35:46.423Z,23.19
2018-07-02T07:38:16.240Z,22.86
2018-07-02T07:40:46.184Z,22.96
2018-07-02T07:43:16.100Z,22.92
2018-07-02T07:45:45.923Z,23.15
2018-07-02T07:48:15.796Z,23.57
2018-07-02T07:50:45.626Z,23.94
2018-07-02T07:53:15.585Z,23.76
2018-07-02T07:55:45.898Z,23.73
2018-07-02T07:58:16.556Z,23.81
2018-07-02T08:00:46.665Z,23.66
2018-07-02T08:03:16.543Z,23.03
2018-07-02T08:08:22.200Z,23.57
2018-07-02T08:10:52.255Z,23.84
2018-07-02T08:13:22.274Z,23.72
2018-07-02T08:15:52.211Z,24.26
2018-07-02T08:18:21.998Z,24.14
2018-07-02T08:20:52.033Z,23.39
2018-07-02T08:28:40.926Z,23.38
2018-07-02T08:31:10.623Z,23.79
2018-07-02T08:33:40.478Z,23.91
2018-07-02T08:36:10.893Z,23.66
2018-07-02T08:38:40.988Z,23.54
2018-07-02T08:41:10.764Z,23.46
2018-07-02T08:43:40.713Z,23.63
2018-07-02T08:46:11.007Z,23.99
2018-07-02T08:48:41.070Z,24.46
2018-07-02T08:51:10.831Z,24.76
2018-07-02T08:53:40.719Z,24.69
2018-07-02T08:56:10.911Z,24.52
2018-07-02T08:58:40.850Z,24.71
2018-07-02T09:01:10.847Z,24.76
2018-07-02T09:03:40.844Z,24.98
2018-07-02T09:06:10.842Z,25.15
2018-07-02T09:08:40.687Z,25.42
2018-07-02T09:11:10.740Z,25.16
2018-07-02T09:13:40.580Z,25.10
2018-07-02T09:16:10.501Z,24.98
2018-07-02T09:18:40.533Z,25.06
2018-07-02T09:21:10.473Z,24.78
2018-07-02T09:23:40.468Z,24.66
2018-07-02T09:26:10.293Z,24.97
2018-07-02T09:28:40.346Z,25.20
2018-07-02T09:31:10.207Z,25.49
2018-07-02T09:33:40.255Z,25.42
2018-07-02T09:36:10.477Z,25.26
2018-07-02T09:41:15.707Z,25.08
2018-07-02T09:43:45.575Z,25.06
2018-07-02T09:46:15.460Z,25.11
2018-07-02T09:48:45.297Z,24.94
2018-07-02T09:51:15.310Z,25.34
2018-07-02T09:53:45.055Z,25.78
2018-07-02T09:56:14.941Z,25.75
2018-07-02T09:58:44.897Z,26.05
2018-07-02T10:01:14.788Z,26.30
2018-07-02T10:03:44.908Z,26.19
2018-07-02T10:06:14.788Z,26.60
2018-07-02T10:08:44.794Z,26.48
2018-07-02T10:11:14.791Z,26.98
2018-07-02T10:13:44.899Z,26.98
2018-07-02T10:16:14.892Z,27.07
2018-07-02T10:18:44.996Z,27.04
2018-07-02T10:21:15.073Z,26.20
2018-07-02T10:23:45.108Z,25.52
2018-07-02T10:26:15.137Z,25.62
2018-07-02T10:28:45.033Z,25.77
2018-07-02T10:31:15.154Z,26.33
2018-07-02T10:33:45.319Z,26.47
2018-07-02T10:36:15.220Z,26.26
2018-07-02T10:38:45.433Z,26.71
2018-07-02T10:41:15.625Z,26.81
2018-07-02T10:43:46.140Z,26.94
2018-07-02T10:46:16.856Z,26.98
2018-07-02T10:48:46.829Z,26.33
2018-07-02T10:51:17.333Z,26.33
2018-07-02T10:56:22.529Z,27.61
2018-07-02T10:58:52.339Z,28.15
2018-07-02T11:04:04.686Z,27.34
2018-07-02T11:06:34.506Z,27.83
2018-07-02T11:09:14.864Z,28.14
2018-07-02T11:11:55.097Z,27.47
2018-07-02T11:14:38.104Z,27.51
2018-07-02T11:17:12.558Z,27.38
2018-07-02T11:19:56.190Z,27.08
2018-07-02T11:22:33.870Z,26.81
2018-07-02T11:25:08.967Z,27.43
2018-07-02T11:27:45.476Z,27.21
2018-07-02T11:30:32.876Z,26.78
2018-07-02T11:33:10.421Z,27.54
2018-07-02T11:35:53.673Z,28.09
2018-07-02T11:38:38.541Z,28.52
2018-07-02T11:41:19.043Z,28.65
2018-07-02T11:44:04.512Z,28.64
2018-07-02T11:46:43.540Z,28.34
2018-07-02T11:52:08.602Z,27.65
2018-07-02T11:54:53.429Z,28.09
2018-07-02T11:57:35.974Z,27.40
2018-07-02T12:00:20.162Z,27.03
2018-07-02T12:02:59.189Z,27.63
2018-07-02T12:05:32.590Z,27.04
2018-07-02T12:08:14.076Z,26.66
2018-07-02T12:13:37.087Z,26.41
2018-07-02T12:16:13.955Z,26.37
2018-07-02T12:18:48.649Z,26.45
2018-07-02T12:21:26.775Z,26.90
2018-07-02T12:24:04.261Z,27.78
2018-07-02T12:29:31.319Z,28.06
2018-07-02T12:32:22.165Z,28.70
2018-07-02T12:35:01.201Z,27.92
2018-07-02T12:37:34.264Z,28.03
2018-07-02T12:40:07.124Z,27.88
2018-07-02T12:42:41.274Z,27.43
2018-07-02T12:45:17.949Z,27.37
2018-07-02T12:47:55.285Z,27.43
2018-07-02T12:50:28.773Z,27.84
2018-07-02T12:53:00.880Z,27.81
2018-07-02T12:55:33.441Z,28.38
2018-07-02T12:58:08.142Z,29.07
2018-07-02T13:00:40.393Z,28.15
2018-07-02T13:03:13.174Z,27.84
2018-07-02T13:05:46.247Z,27.81
2018-07-02T13:08:19.213Z,27.66
2018-07-02T13:10:52.739Z,28.02
2018-07-02T13:13:25.980Z,28.70
2018-07-02T13:15:57.929Z,28.87
2018-07-02T13:18:30.185Z,29.56
2018-07-02T13:21:03.113Z,29.62
2018-07-02T13:23:35.513Z,29.61
2018-07-02T13:26:07.807Z,29.09
2018-07-02T13:28:42.434Z,28.40
2018-07-02T13:31:15.493Z,28.43
2018-07-02T13:33:49.352Z,28.27
2018-07-02T13:36:21.704Z,28.30
2018-07-02T13:38:54.045Z,28.25
2018-07-02T13:41:26.013Z,28.36
2018-07-02T13:44:02.391Z,27.61
2018-07-02T13:46:40.017Z,27.40
2018-07-02T13:49:14.790Z,28.31
2018-07-02T13:52:00.498Z,28.97
2018-07-02T13:54:35.718Z,29.51
2018-07-02T13:57:14.720Z,30.05
2018-07-02T13:59:55.349Z,30.13
2018-07-02T14:05:17.427Z,28.94
2018-07-02T14:07:54.686Z,28.51
2018-07-02T14:10:36.121Z,28.83
2018-07-02T14:13:13.255Z,28.77
2018-07-02T14:15:52.681Z,29.13
2018-07-02T14:18:29.909Z,29.07
2018-07-02T14:21:08.537Z,29.38
2018-07-02T14:23:44.113Z,29.66
2018-07-02T14:26:19.094Z,29.76
2018-07-02T14:28:57.017Z,30.03
2018-07-02T14:31:36.417Z,30.16
2018-07-02T14:34:16.688Z,29.85
2018-07-02T14:36:55.929Z,29.79
2018-07-02T14:39:34.005Z,29.37
2018-07-02T14:42:09.989Z,30.01
2018-07-02T14:44:50.338Z,30.77
2018-07-02T14:47:28.402Z,30.51
2018-07-02T14:50:12.973Z,30.52
2018-07-02T14:55:36.030Z,29.77
2018-07-02T14:58:09.896Z,29.15
2018-07-02T15:00:48.611Z,28.89
2018-07-02T15:03:32.265Z,28.91
2018-07-02T15:06:18.166Z,28.86
2018-07-02T15:09:01.304Z,29.33
2018-07-02T15:11:38.102Z,29.86
2018-07-02T15:14:12.874Z,30.40
2018-07-02T15:16:54.115Z,30.38
2018-07-02T15:19:34.108Z,29.72
2018-07-02T15:25:02.904Z,29.68
2018-07-02T15:27:43.326Z,29.24
2018-07-02T15:30:31.830Z,29.42
2018-07-02T15:33:15.467Z,29.24
2018-07-02T15:38:43.310Z,29.84
2018-07-02T15:51:18.626Z,30.67
2018-07-02T15:56:40.944Z,30.37
2018-07-02T15:59:25.873Z,29.94
2018-07-02T16:02:08.905Z,30.05
2018-07-02T16:04:58.848Z,30.53
2018-07-02T16:10:27.753Z,30.06
2018-07-02T16:13:08.449Z,30.59
2018-07-02T16:18:43.540Z,30.32
2018-07-02T16:21:22.426Z,30.71
2018-07-02T16:24:11.912Z,30.90
2018-07-02T16:26:49.422Z,30.87
2018-07-02T16:29:38.808Z,30.87
2018-07-02T16:32:22.045Z,30.54
2018-07-02T16:35:03.320Z,30.44
2018-07-02T16:37:40.365Z,30.37
2018-07-02T16:43:19.646Z,29.81
2018-07-02T16:45:58.798Z,29.41
2018-07-02T16:48:38.408Z,28.97
2018-07-02T16:54:19.216Z,28.64
2018-07-02T16:57:06.918Z,29.11
2018-07-02T17:02:39.701Z,28.89
2018-07-02T17:05:17.733Z,28.59
2018-07-02T17:08:07.760Z,28.44
2018-07-02T17:10:58.377Z,28.35
2018-07-02T17:13:47.924Z,27.91
2018-07-02T17:16:32.033Z,27.38
2018-07-02T17:21:54.472Z,27.31
2018-07-02T17:30:04.218Z,28.44
2018-07-02T17:32:45.367Z,28.33
2018-07-02T17:35:26.914Z,28.00
2018-07-02T17:40:47.331Z,27.53
2018-07-02T17:43:20.079Z,27.61
2018-07-02T17:45:52.436Z,27.58
2018-07-02T17:48:28.532Z,27.23
2018-07-02T17:51:01.941Z,27.11
2018-07-02T17:53:34.662Z,27.15
2018-07-02T17:56:07.965Z,27.20
2018-07-02T17:58:43.065Z,27.18
2018-07-02T18:01:16.251Z,27.29
2018-07-02T18:03:52.824Z,27.32
2018-07-02T18:06:31.224Z,27.31
2018-07-02T18:09:03.986Z,27.13
2018-07-02T18:11:36.432Z,26.87
2018-07-02T18:14:09.056Z,26.77
2018-07-02T18:16:43.334Z,26.62
2018-07-02T18:19:29.732Z,26.58
2018-07-02T18:25:06.172Z,26.82
2018-07-02T18:27:45.552Z,26.77
2018-07-02T18:30:24.793Z,26.64
2018-07-02T18:32:59.082Z,26.59
2018-07-02T18:36:32.150Z,26.77
2018-07-02T18:39:12.031Z,26.67
2018-07-02T18:41:47.700Z,26.61
2018-07-02T18:44:32.506Z,26.67
2018-07-02T18:47:08.194Z,26.59
2018-07-02T18:49:40.690Z,26.53
2018-07-02T18:52:15.267Z,26.54
2018-07-02T18:54:51.874Z,26.53
2018-07-02T18:57:37.189Z,26.44
2018-07-02T19:00:16.983Z,26.11
2018-07-02T19:02:58.174Z,26.15
2018-07-02T19:08:17.421Z,26.29
2018-07-02T19:11:01.731Z,26.28
2018-07-02T19:13:47.145Z,26.34
2018-07-02T19:16:19.573Z,26.34
2018-07-02T19:18:53.855Z,26.50
2018-07-02T19:24:13.606Z,26.34
2018-07-02T19:26:48.186Z,26.14
2018-07-02T19:29:23.927Z,25.95
2018-07-02T19:32:01.954Z,25.86
2018-07-02T19:34:35.297Z,25.78
2018-07-02T19:37:12.006Z,25.64
2018-07-02T19:39:44.541Z,25.47
2018-07-02T19:42:18.974Z,25.39
2018-07-02T19:44:53.007Z,25.33
2018-07-02T19:47:29.007Z,25.40
2018-07-02T19:50:02.022Z,25.42
2018-07-02T19:52:34.629Z,25.30
2018-07-02T19:55:09.590Z,25.18
2018-07-02T19:57:42.428Z,25.04
2018-07-02T20:02:59.045Z,25.13
2018-07-02T20:05:32.360Z,25.30
2018-07-02T20:08:04.855Z,25.40
2018-07-02T20:10:40.946Z,25.47
2018-07-02T20:16:03.189Z,25.41
2018-07-02T20:18:41.904Z,25.36
2018-07-02T20:21:17.360Z,25.33
2018-07-02T20:23:57.996Z,25.20
2018-07-02T20:26:31.499Z,25.24
2018-07-02T20:29:11.153Z,25.29
2018-07-02T20:31:48.648Z,25.36
2018-07-02T20:34:22.246Z,25.32
2018-07-02T20:36:54.498Z,25.27
2018-07-02T20:39:30.748Z,25.23
2018-07-02T20:42:05.639Z,25.26
2018-07-02T20:44:42.705Z,25.18
2018-07-02T20:47:19.697Z,25.15
2018-07-02T20:49:52.724Z,25.08
2018-07-02T20:52:25.797Z,24.94
2018-07-02T20:54:57.929Z,24.94
2018-07-02T20:57:32.441Z,25.10
2018-07-02T21:00:15.056Z,25.13
2018-07-02T21:02:53.321Z,25.21
2018-07-02T21:05:27.386Z,25.37
2018-07-02T21:08:00.537Z,25.47
2018-07-02T21:10:38.185Z,25.37
2018-07-02T21:13:10.125Z,25.74
2018-07-02T21:15:45.207Z,25.58
2018-07-02T21:18:23.821Z,25.25
2018-07-02T21:21:02.446Z,25.11
2018-07-02T21:23:36.898Z,25.02
2018-07-02T21:26:11.468Z,24.87
2018-07-02T21:28:44.522Z,24.60
2018-07-02T21:36:31.428Z,24.75
2018-07-02T21:39:05.309Z,24.77
2018-07-02T21:41:43.911Z,24.83
2018-07-02T21:44:22.756Z,24.87
2018-07-02T21:47:02.612Z,24.84
2018-07-02T21:49:37.964Z,24.91
2018-07-02T21:52:13.095Z,24.87
2018-07-02T21:54:46.572Z,24.94
2018-07-02T21:57:19.702Z,24.91
2018-07-02T21:59:55.345Z,24.87
2018-07-02T22:02:29.697Z,24.85
2018-07-02T22:07:44.656Z,24.78
2018-07-02T22:12:55.082Z,24.70
2018-07-02T22:15:27.811Z,24.78
2018-07-02T22:18:05.650Z,24.82
2018-07-02T22:20:40.224Z,24.73
2018-07-02T22:23:16.023Z,24.73
2018-07-02T22:25:50.461Z,24.74
2018-07-02T22:28:28.484Z,24.57
2018-07-02T22:31:01.352Z,24.59
2018-07-02T22:33:39.789Z,24.77
2018-07-02T22:36:12.122Z,24.62
2018-07-02T22:38:45.524Z,24.56
2018-07-02T22:41:21.165Z,24.59
2018-07-02T22:44:02.942Z,24.63
2018-07-02T22:46:40.048Z,24.60
2018-07-02T22:49:17.562Z,24.52
2018-07-02T22:51:54.320Z,24.50
2018-07-02T22:54:29.315Z,24.55
2018-07-02T22:57:03.609Z,24.54
2018-07-02T22:59:36.782Z,24.48
2018-07-02T23:05:01.048Z,24.30
2018-07-02T23:07:36.195Z,24.34
2018-07-02T23:10:15.582Z,24.41
2018-07-02T23:12:50.451Z,24.42
2018-07-02T23:18:15.517Z,24.39
2018-07-02T23:20:50.346Z,24.46
2018-07-02T23:23:24.963Z,24.37
2018-07-02T23:25:59.240Z,24.38
2018-07-02T23:31:19.994Z,24.23
2018-07-02T23:33:52.836Z,24.11
2018-07-02T23:36:27.116Z,24.20
2018-07-02T23:39:01.927Z,24.19
2018-07-02T23:41:35.080Z,24.28
2018-07-02T23:44:17.371Z,24.33
2018-07-02T23:46:53.280Z,24.34
2018-07-02T23:49:29.596Z,24.40
2018-07-02T23:52:04.090Z,24.41
2018-07-02T23:54:38.268Z,24.36
2018-07-02T23:59:51.000Z,24.32
